.
WxDataArchive / Data Records for 2011-03-19
2011-03-18 March 2011 2011-03-20

Data Records for Saturday, 19 March 2011

Time	Temp	Chill	HIndex	Humid	Dewpt	 Wind 	HiWind	WindDir	Rain 	Barom 
-----	----	-----	------	-----	-----	------	------	-------	-----	----- 
00:00	39.1	39.1	39.1	69	29.8	1	3	270	0.00	30.293 
00:05	38.9	38.9	38.9	70	30.0	0	3	270	0.00	30.293 
00:10	38.8	38.8	38.8	70	29.9	0	1	270	0.00	30.293 
00:15	38.6	38.6	38.6	70	29.7	0	2	270	0.00	30.296 
00:20	38.6	38.6	38.6	71	30.0	0	2	270	0.00	30.296 
00:25	38.5	38.5	38.5	71	29.9	0	3	270	0.00	30.296 
00:30	38.5	38.5	38.5	71	29.9	0	2	315	0.00	30.303 
00:35	38.3	38.3	38.3	71	29.7	0	2	315	0.00	30.303 
00:40	38.3	38.3	38.3	71	29.7	0	2	315	0.00	30.303 
00:45	38.3	38.3	38.3	71	29.7	0	2	315	0.00	30.308 
00:50	38.3	38.3	38.3	71	29.7	0	2	315	0.00	30.308 
00:55	38.2	38.2	38.2	71	29.6	1	3	315	0.00	30.308 
01:00	38.2	38.2	38.2	71	29.6	1	3	315	0.00	30.311 
01:05	38.0	38.0	38.0	71	29.4	0	1	315	0.00	30.311 
01:10	37.9	37.9	37.9	71	29.4	0	2	315	0.00	30.311 
01:15	37.9	37.9	37.9	72	29.7	0	3	270	0.00	30.319 
01:20	37.8	37.8	37.8	72	29.6	0	1	270	0.00	30.319 
01:25	37.6	37.6	37.6	72	29.4	0	3	270	0.00	30.319 
01:30	37.5	37.5	37.5	72	29.3	0	1	270	0.00	30.324 
01:35	37.3	37.3	37.3	73	29.5	0	2	270	0.00	30.324 
01:40	37.3	37.3	37.3	73	29.5	0	1	270	0.00	30.324 
01:45	37.2	37.2	37.2	73	29.4	0	2	270	0.00	30.328 
01:50	37.2	37.2	37.2	73	29.4	0	2	270	0.00	30.328 
01:55	37.0	37.0	37.0	73	29.2	0	2	270	0.00	30.328 
02:00	36.9	36.9	36.9	74	29.4	0	1	270	0.00	30.334 
02:05	36.9	36.9	36.9	74	29.4	0	1	270	0.00	30.334 
02:10	36.8	36.8	36.8	74	29.3	0	2	270	0.00	30.334 
02:15	36.6	36.6	36.6	74	29.1	0	0	---	0.00	30.342 
02:20	36.5	36.5	36.5	74	29.0	0	1	270	0.00	30.342 
02:25	36.2	36.2	36.2	75	29.1	0	0	---	0.00	30.342 
02:30	36.0	36.0	36.0	75	28.9	0	1	270	0.00	30.347 
02:35	35.8	35.8	35.8	75	28.7	0	0	---	0.00	30.347 
02:40	35.5	35.5	35.5	76	28.7	0	0	---	0.00	30.347 
02:45	35.2	35.2	35.2	76	28.4	0	0	---	0.00	30.355 
02:50	34.9	34.9	34.9	77	28.4	0	0	---	0.00	30.355 
02:55	34.4	34.4	34.4	77	27.9	0	0	---	0.00	30.355 
03:00	34.1	34.1	34.1	77	27.7	0	0	---	0.00	30.359 
03:05	33.8	33.8	33.8	78	27.7	0	0	---	0.00	30.359 
03:10	33.5	33.5	33.5	78	27.4	0	0	---	0.00	30.359 
03:15	33.2	33.2	33.2	79	27.4	0	0	---	0.00	30.361 
03:20	33.1	33.1	33.1	80	27.6	0	0	---	0.00	30.361 
03:25	32.8	32.8	32.8	80	27.3	0	0	---	0.00	30.361 
03:30	32.5	32.5	32.5	81	27.3	0	0	---	0.00	30.362 
03:35	32.2	32.2	32.2	81	27.0	0	0	---	0.00	30.362 
03:40	31.9	31.9	31.9	81	26.7	0	0	---	0.00	30.362 
03:45	31.6	31.6	31.6	81	26.5	0	0	---	0.00	30.364 
03:50	31.3	31.3	31.3	81	26.2	0	0	---	0.00	30.364 
03:55	31.0	31.0	31.0	82	26.2	0	0	---	0.00	30.364 
04:00	30.7	30.7	30.7	83	26.2	0	0	---	0.00	30.365 
04:05	30.6	30.6	30.6	83	26.1	0	0	---	0.00	30.365 
04:10	30.3	30.3	30.3	84	26.1	0	0	---	0.00	30.365 
04:15	30.1	30.1	30.1	84	25.9	0	0	---	0.00	30.366 
04:20	30.0	30.0	30.0	84	25.8	0	0	---	0.00	30.366 
04:25	29.8	29.8	29.8	85	25.9	0	0	---	0.00	30.366 
04:30	29.8	29.8	29.8	85	25.9	0	0	---	0.00	30.367 
04:35	29.8	29.8	29.8	85	25.9	0	0	---	0.00	30.367 
04:40	29.7	29.7	29.7	86	26.0	0	0	---	0.00	30.367 
04:45	29.7	29.7	29.7	86	26.0	0	0	---	0.00	30.370 
04:50	29.5	29.5	29.5	86	25.8	0	0	---	0.00	30.370 
04:55	29.5	29.5	29.5	86	25.8	0	0	---	0.00	30.370 
05:00	29.4	29.4	29.4	87	26.0	0	0	---	0.00	30.378 
05:05	29.3	29.3	29.3	87	25.9	0	0	---	0.00	30.378 
05:10	29.3	29.3	29.3	87	25.9	0	0	---	0.00	30.378 
05:15	29.1	29.1	29.1	87	25.7	0	0	---	0.00	30.383 
05:20	29.1	29.1	29.1	88	26.0	0	0	---	0.00	30.383 
05:25	29.0	29.0	29.0	88	25.9	0	0	---	0.00	30.383 
05:30	28.8	28.8	28.8	88	25.7	0	0	---	0.00	30.385 
05:35	28.8	28.8	28.8	88	25.7	0	0	---	0.00	30.385 
05:40	28.8	28.8	28.8	88	25.7	0	0	---	0.00	30.385 
05:45	28.8	28.8	28.8	88	25.7	0	0	---	0.00	30.393 
05:50	28.8	28.8	28.8	88	25.7	0	0	---	0.00	30.393 
05:55	28.7	28.7	28.7	88	25.6	0	0	---	0.00	30.393 
06:00	28.5	28.5	28.5	88	25.4	0	0	---	0.00	30.398 
06:05	28.4	28.4	28.4	88	25.3	0	0	---	0.00	30.398 
06:10	28.2	28.2	28.2	88	25.1	0	0	---	0.00	30.398 
06:15	28.2	28.2	28.2	88	25.1	0	0	---	0.00	30.407 
06:20	28.1	28.1	28.1	88	25.0	0	0	---	0.00	30.407 
06:25	28.1	28.1	28.1	89	25.3	0	0	---	0.00	30.407 
06:30	27.9	27.9	27.9	89	25.1	0	0	---	0.00	30.415 
06:35	27.9	27.9	27.9	89	25.1	0	0	---	0.00	30.415 
06:40	27.8	27.8	27.8	89	25.0	0	0	---	0.00	30.415 
06:45	27.6	27.6	27.6	89	24.8	0	0	---	0.00	30.424 
06:50	27.5	27.5	27.5	89	24.7	0	0	---	0.00	30.424 
06:55	27.5	27.5	27.5	89	24.7	0	0	---	0.00	30.424 
07:00	27.3	27.3	27.3	89	24.5	0	0	---	0.00	30.434 
07:05	27.3	27.3	27.3	89	24.5	0	0	---	0.00	30.434 
07:10	27.3	27.3	27.3	89	24.5	0	0	---	0.00	30.434 
07:15	27.3	27.3	27.3	89	24.5	0	0	---	0.00	30.440 
07:20	27.2	27.2	27.2	89	24.4	0	0	---	0.00	30.440 
07:25	27.2	27.2	27.2	89	24.4	0	0	---	0.00	30.440 
07:30	27.0	27.0	27.0	89	24.2	0	0	---	0.00	30.451 
07:35	26.9	26.9	26.9	89	24.1	0	0	---	0.00	30.451 
07:40	26.7	26.7	26.7	89	23.9	0	0	---	0.00	30.451 
07:45	26.6	26.6	26.6	90	24.1	0	0	---	0.00	30.460 
07:50	26.7	26.7	26.7	90	24.2	0	0	---	0.00	30.460 
07:55	26.7	26.7	26.7	90	24.2	0	0	---	0.00	30.460 
08:00	26.9	26.9	26.9	90	24.4	0	0	---	0.00	30.470 
08:05	26.9	26.9	26.9	90	24.4	0	0	---	0.00	30.470 
08:10	26.9	26.9	26.9	90	24.4	0	0	---	0.00	30.470 
08:15	27.0	27.0	27.0	90	24.5	0	0	---	0.00	30.478 
08:20	27.2	27.2	27.2	91	24.9	0	0	---	0.00	30.478 
08:25	27.5	27.5	27.5	91	25.2	0	0	---	0.00	30.478 
08:30	27.8	27.8	27.8	91	25.5	0	0	---	0.00	30.485 
08:35	28.1	28.1	28.1	91	25.8	0	0	---	0.00	30.485 
08:40	28.5	28.5	28.5	91	26.2	0	0	---	0.00	30.485 
08:45	29.0	29.0	29.0	92	27.0	0	0	---	0.00	30.491 
08:50	29.5	29.5	29.5	92	27.5	0	0	---	0.00	30.491 
08:55	30.1	30.1	30.1	92	28.1	0	0	---	0.00	30.491 
09:00	30.7	30.7	30.7	92	28.7	0	0	---	0.00	30.498 
09:05	31.5	31.5	31.5	92	29.4	0	0	---	0.00	30.498 
09:10	32.1	32.1	32.1	92	30.0	0	0	---	0.00	30.498 
09:15	32.7	32.7	32.7	92	30.6	0	0	---	0.00	30.505 
09:20	33.2	33.2	33.2	92	31.1	0	0	---	0.00	30.505 
09:25	34.1	34.1	34.1	91	31.8	0	1	270	0.00	30.505 
09:30	34.9	34.9	34.9	89	32.0	0	2	270	0.00	30.515 
09:35	35.5	35.5	35.5	87	32.0	1	3	270	0.00	30.515 
09:40	35.8	35.8	35.8	84	31.4	1	4	90	0.00	30.515 
09:45	36.2	36.2	36.2	81	30.9	1	4	90	0.00	30.521 
09:50	36.5	36.5	36.5	81	31.2	0	2	90	0.00	30.521 
09:55	36.9	36.9	36.9	79	31.0	1	3	90	0.00	30.521 
10:00	37.2	37.2	37.2	77	30.7	2	4	90	0.00	30.524 
10:05	37.6	37.6	37.6	77	31.1	0	2	90	0.00	30.524 
10:10	38.2	38.2	38.2	74	30.7	0	2	90	0.00	30.524 
10:15	38.8	38.8	38.8	73	30.9	1	4	90	0.00	30.529 
10:20	38.9	38.9	38.9	71	30.3	1	4	90	0.00	30.529 
10:25	39.2	39.2	39.2	70	30.3	0	2	90	0.00	30.529 
10:30	39.6	39.6	39.6	70	30.6	0	1	90	0.00	30.532 
10:35	40.1	40.1	40.1	68	30.4	1	4	90	0.00	30.532 
10:40	40.3	40.3	40.3	67	30.2	1	3	90	0.00	30.532 
10:45	40.6	40.6	40.6	67	30.5	0	3	90	0.00	30.539 
10:50	41.1	41.1	41.1	66	30.6	1	3	90	0.00	30.539 
10:55	41.5	41.5	41.5	64	30.2	1	4	90	0.00	30.539 
11:00	41.9	41.9	41.9	64	30.6	1	4	90	0.00	30.538 
11:05	42.1	42.1	42.1	62	30.0	1	4	90	0.00	30.538 
11:10	42.5	42.5	42.5	62	30.4	1	4	90	0.00	30.538 
11:15	42.8	42.8	42.8	61	30.3	2	5	112	0.00	30.535 
11:20	42.9	42.9	42.9	61	30.4	1	5	90	0.00	30.535 
11:25	43.1	43.1	43.1	61	30.6	1	5	90	0.00	30.535 
11:30	43.3	43.3	43.3	59	29.9	1	5	112	0.00	30.526 
11:35	43.3	43.3	43.3	57	29.1	2	5	112	0.00	30.526 
11:40	43.5	43.5	43.5	56	28.9	1	4	112	0.00	30.526 
11:45	43.9	43.9	43.9	57	29.7	1	4	45	0.00	30.525 
11:50	44.6	44.6	44.6	57	30.3	1	4	112	0.00	30.525 
11:55	45.1	45.1	45.1	55	29.9	1	5	90	0.00	30.525 
12:00	45.1	45.1	45.1	50	27.6	2	7	90	0.00	30.520 
12:05	44.9	44.9	44.9	53	28.8	1	3	112	0.00	30.520 
12:10	45.1	45.1	45.1	53	29.0	1	4	112	0.00	30.520 
12:15	45.5	45.5	45.5	53	29.4	1	4	112	0.00	30.522 
12:20	46.1	46.1	46.1	52	29.5	2	5	112	0.00	30.522 
12:25	46.2	46.2	46.2	51	29.1	1	3	112	0.00	30.522 
12:30	46.4	46.4	46.4	50	28.8	2	5	112	0.00	30.520 
12:35	46.5	46.5	46.5	49	28.4	1	5	112	0.00	30.520 
12:40	46.5	46.5	46.5	47	27.4	2	7	112	0.00	30.520 
12:45	46.7	46.7	46.7	47	27.6	2	6	112	0.00	30.521 
12:50	46.5	46.5	46.5	48	27.9	1	5	112	0.00	30.521 
12:55	47.0	47.0	47.0	48	28.3	1	5	90	0.00	30.521 
13:00	47.1	47.1	47.1	47	27.9	1	3	90	0.00	30.523 
13:05	47.0	47.0	47.0	46	27.3	3	6	90	0.00	30.523 
13:10	47.0	47.0	47.0	49	28.8	1	5	112	0.00	30.523 
13:15	47.1	47.1	47.1	50	29.4	3	7	112	0.00	30.524 
13:20	47.4	47.4	47.4	48	28.7	2	6	112	0.00	30.524 
13:25	47.1	47.1	47.1	47	27.9	1	3	112	0.00	30.524 
13:30	47.4	47.4	47.4	49	29.2	0	1	112	0.00	30.524 
13:35	47.9	47.9	47.9	50	30.2	1	4	112	0.00	30.524 
13:40	48.5	48.5	48.5	49	30.2	1	2	112	0.00	30.524 
13:45	48.5	48.5	48.5	46	28.7	2	5	112	0.00	30.519 
13:50	48.6	48.6	48.6	48	29.8	1	5	22	0.00	30.519 
13:55	48.6	48.6	48.6	47	29.3	2	6	112	0.00	30.519 
14:00	48.6	48.6	48.6	46	28.8	2	5	90	0.00	30.518 
14:05	48.6	48.6	48.6	47	29.3	0	4	90	0.00	30.518 
14:10	49.1	49.1	49.1	47	29.7	1	5	90	0.00	30.518 
14:15	49.1	49.1	49.1	46	29.2	1	4	90	0.00	30.519 
14:20	49.2	49.2	49.2	44	28.2	2	7	90	0.00	30.519 
14:25	48.9	48.9	48.9	46	29.0	1	3	112	0.00	30.519 
14:30	49.4	49.4	49.4	46	29.5	0	2	112	0.00	30.513 
14:35	49.6	49.6	49.6	42	27.5	1	4	112	0.00	30.513 
14:40	49.8	49.8	49.8	44	28.8	1	6	90	0.00	30.513 
14:45	50.1	50.1	50.1	44	29.0	0	1	90	0.00	30.498 
14:50	50.5	50.5	50.5	42	28.3	1	2	90	0.00	30.498 
14:55	50.5	50.5	50.5	42	28.3	1	3	112	0.00	30.498 
15:00	50.5	50.5	50.5	42	28.3	1	6	112	0.00	30.494 
15:05	51.0	51.0	51.0	45	30.4	0	2	112	0.00	30.494 
15:10	51.1	51.1	51.1	43	29.4	1	3	112	0.00	30.494 
15:15	51.0	51.0	51.0	43	29.3	1	4	112	0.00	30.488 
15:20	51.0	51.0	51.0	43	29.3	2	6	90	0.00	30.488 
15:25	50.8	50.8	50.8	40	27.4	1	3	90	0.00	30.488 
15:30	50.8	50.8	50.8	41	28.0	1	5	90	0.00	30.487 
15:35	51.0	51.0	51.0	43	29.3	1	5	90	0.00	30.487 
15:40	51.3	51.3	51.3	41	28.4	1	4	90	0.00	30.487 
15:45	51.6	51.6	51.6	40	28.1	0	3	112	0.00	30.480 
15:50	51.7	51.7	51.7	41	28.8	0	2	45	0.00	30.480 
15:55	51.9	51.9	51.9	38	27.1	0	1	45	0.00	30.480 
16:00	52.0	52.0	52.0	39	27.8	1	4	112	0.00	30.478 
16:05	52.0	52.0	52.0	42	29.6	0	2	45	0.00	30.478 
16:10	51.6	51.6	51.6	40	28.1	2	5	135	0.00	30.478 
16:15	51.4	51.4	51.4	41	28.5	1	3	112	0.00	30.481 
16:20	51.7	51.7	51.7	41	28.8	0	1	112	0.00	30.481 
16:25	51.7	51.7	51.7	39	27.6	1	3	112	0.00	30.481 
16:30	51.7	51.7	51.7	41	28.8	0	2	112	0.00	30.470 
16:35	51.9	51.9	51.9	40	28.3	0	5	112	0.00	30.470 
16:40	52.0	52.0	52.0	38	27.2	2	10	112	0.00	30.470 
16:45	52.0	52.0	52.0	39	27.8	1	4	112	0.00	30.466 
16:50	52.0	52.0	52.0	38	27.2	0	2	22	0.00	30.466 
16:55	52.2	52.2	52.2	37	26.7	1	3	0	0.00	30.466 
17:00	52.2	52.2	52.2	38	27.4	0	2	315	0.00	30.466 
17:05	52.2	52.2	52.2	37	26.7	2	7	112	0.00	30.466 
17:10	52.0	52.0	52.0	37	26.5	3	9	112	0.00	30.466 
17:15	52.2	52.2	52.2	38	27.4	1	4	112	0.00	30.463 
17:20	52.2	52.2	52.2	37	26.7	3	6	90	0.00	30.463 
17:25	51.9	51.9	51.9	37	26.5	2	6	90	0.00	30.463 
17:30	52.0	52.0	52.0	38	27.2	1	5	112	0.00	30.461 
17:35	52.0	52.0	52.0	38	27.2	0	2	112	0.00	30.461 
17:40	52.0	52.0	52.0	37	26.5	1	4	112	0.00	30.461 
17:45	52.0	52.0	52.0	37	26.5	1	3	112	0.00	30.461 
17:50	51.7	51.7	51.7	37	26.3	1	2	112	0.00	30.461 
17:55	51.7	51.7	51.7	37	26.3	2	7	112	0.00	30.461 
18:00	51.6	51.6	51.6	37	26.2	3	5	90	0.00	30.458 
18:05	51.4	51.4	51.4	37	26.0	2	5	112	0.00	30.458 
18:10	51.3	51.3	51.3	37	25.9	2	4	90	0.00	30.458 
18:15	51.3	51.3	51.3	37	25.9	1	4	112	0.00	30.464 
18:20	51.3	51.3	51.3	37	25.9	1	2	112	0.00	30.464 
18:25	51.3	51.3	51.3	37	25.9	3	5	90	0.00	30.464 
18:30	51.3	51.3	51.3	38	26.6	2	4	90	0.00	30.474 
18:35	51.3	51.3	51.3	38	26.6	2	5	90	0.00	30.474 
18:40	51.1	51.1	51.1	37	25.7	2	4	112	0.00	30.474 
18:45	51.0	51.0	51.0	37	25.7	1	3	112	0.00	30.482 
18:50	51.0	51.0	51.0	39	26.9	1	2	112	0.00	30.482 
18:55	50.8	50.8	50.8	38	26.1	0	3	90	0.00	30.482 
19:00	50.7	50.7	50.7	38	26.0	0	4	90	0.00	30.477 
19:05	50.7	50.7	50.7	39	26.7	1	3	90	0.00	30.477 
19:10	50.5	50.5	50.5	39	26.5	1	3	90	0.00	30.477 
19:15	50.4	50.4	50.4	39	26.4	1	2	90	0.00	30.475 
19:20	50.2	50.2	50.2	39	26.2	1	3	90	0.00	30.475 
19:25	49.9	49.9	49.9	41	27.1	2	4	90	0.00	30.475 
19:30	49.6	49.6	49.6	42	27.5	1	4	90	0.00	30.483 
19:35	49.5	49.5	49.5	43	27.9	0	2	90	0.00	30.483 
19:40	49.2	49.2	49.2	44	28.2	0	0	---	0.00	30.483 
19:45	48.8	48.8	48.8	45	28.4	0	1	90	0.00	30.486 
19:50	48.3	48.3	48.3	46	28.5	0	1	90	0.00	30.486 
19:55	47.9	47.9	47.9	47	28.7	0	1	90	0.00	30.486 
20:00	47.6	47.6	47.6	47	28.4	0	0	---	0.00	30.488 
20:05	47.1	47.1	47.1	48	28.4	0	0	---	0.00	30.488 
20:10	46.7	46.7	46.7	49	28.6	0	0	---	0.00	30.488 
20:15	46.4	46.4	46.4	50	28.8	0	1	90	0.00	30.486 
20:20	46.1	46.1	46.1	50	28.5	0	2	90	0.00	30.486 
20:25	45.8	45.8	45.8	51	28.7	0	0	---	0.00	30.486 
20:30	45.5	45.5	45.5	52	28.9	0	0	---	0.00	30.493 
20:35	45.1	45.1	45.1	53	29.0	0	0	---	0.00	30.493 
20:40	44.8	44.8	44.8	53	28.7	0	0	---	0.00	30.493 
20:45	44.3	44.3	44.3	54	28.7	0	0	---	0.00	30.493 
20:50	44.1	44.1	44.1	54	28.5	0	0	---	0.00	30.493 
20:55	43.8	43.8	43.8	55	28.7	0	0	---	0.00	30.493 
21:00	43.6	43.6	43.6	55	28.5	0	0	---	0.00	30.502 
21:05	43.5	43.5	43.5	55	28.4	0	0	---	0.00	30.502 
21:10	43.1	43.1	43.1	57	28.9	0	0	---	0.00	30.502 
21:15	42.8	42.8	42.8	57	28.6	0	0	---	0.00	30.497 
21:20	42.3	42.3	42.3	57	28.2	0	0	---	0.00	30.497 
21:25	41.9	41.9	41.9	58	28.2	0	0	---	0.00	30.497 
21:30	41.5	41.5	41.5	58	27.8	0	0	---	0.00	30.502 
21:35	41.2	41.2	41.2	59	28.0	0	0	---	0.00	30.502 
21:40	40.9	40.9	40.9	59	27.7	0	0	---	0.00	30.502 
21:45	40.6	40.6	40.6	60	27.8	0	0	---	0.00	30.503 
21:50	40.3	40.3	40.3	61	27.9	0	0	---	0.00	30.503 
21:55	40.3	40.3	40.3	61	27.9	0	0	---	0.00	30.503 
22:00	40.2	40.2	40.2	61	27.8	0	0	---	0.00	30.517 
22:05	40.1	40.1	40.1	62	28.1	0	0	---	0.00	30.517 
22:10	39.9	39.9	39.9	63	28.3	0	0	---	0.00	30.517 
22:15	39.6	39.6	39.6	63	28.1	0	0	---	0.00	30.503 
22:20	39.3	39.3	39.3	64	28.2	0	0	---	0.00	30.503 
22:25	39.2	39.2	39.2	65	28.4	0	0	---	0.00	30.503 
22:30	38.9	38.9	38.9	65	28.2	0	0	---	0.00	30.498 
22:35	38.8	38.8	38.8	66	28.4	0	0	---	0.00	30.498 
22:40	38.8	38.8	38.8	66	28.4	0	0	---	0.00	30.498 
22:45	38.8	38.8	38.8	66	28.4	0	0	---	0.00	30.499 
22:50	38.6	38.6	38.6	66	28.2	0	0	---	0.00	30.499 
22:55	38.5	38.5	38.5	66	28.1	0	0	---	0.00	30.499 
23:00	38.3	38.3	38.3	66	28.0	0	0	---	0.00	30.507 
23:05	38.2	38.2	38.2	67	28.2	0	0	---	0.00	30.507 
23:10	38.2	38.2	38.2	67	28.2	0	0	---	0.00	30.507 
23:15	38.0	38.0	38.0	68	28.4	0	0	---	0.00	30.509 
23:20	37.9	37.9	37.9	68	28.3	0	0	---	0.00	30.509 
23:25	37.9	37.9	37.9	69	28.7	0	0	---	0.00	30.509 
23:30	37.9	37.9	37.9	69	28.7	0	1	90	0.00	30.495 
23:35	38.0	38.0	38.0	69	28.7	0	0	---	0.00	30.495 
23:40	38.2	38.2	38.2	69	28.9	0	2	90	0.00	30.495 
23:45	38.6	38.6	38.6	68	29.0	0	2	90	0.00	30.489 
23:50	38.9	38.9	38.9	67	28.9	0	1	90	0.00	30.489 
23:55	39.1	39.1	39.1	66	28.7	0	0	---	0.00	30.489 

CoCoRaHS
IN-AL-39
A2 Web Hosting
Creative Commons License
GoDaddy
search engine by freefind advanced

loaded 2018-11-13 17:49:25 • last modified 2010-11-18 10:43:29
Privacy PolicyDisclaimer
• wx.awcolley.com is powered by PmWiki v.2002016 •
• all content (unless otherwise noted) © 2018 A W Colley